Time;durP1;ratioP1;P1;durP2;ratioP2;P2;SDS_P1;SDS_P2;PMS_P1;PMS_P2;Temp;Humidity;BMP_temperature;BMP_pressure;BME280_temperature;BME280_humidity;BME280_pressure;Samples;Min_cycle;Max_cycle;Signal;HPM_P1;HPM_P2
2022/11/25 00:00:50;;;;;;;4.47;2.80;;;;;;;7.58;74.91;94609.41;5069214;28;20437;-76
2022/11/25 00:03:16;;;;;;;3.50;2.53;;;;;;;7.40;74.79;94596.88;5078742;28;20183;-75
2022/11/25 00:05:42;;;;;;;4.20;2.67;;;;;;;7.47;74.84;94617.84;5069145;28;20401;-76
2022/11/25 00:08:07;;;;;;;3.88;2.40;;;;;;;7.48;75.48;94614.22;5069462;28;20938;-75
2022/11/25 00:10:34;;;;;;;5.00;2.80;;;;;;;7.55;75.02;94628.13;5069402;28;20402;-74
2022/11/25 00:12:59;;;;;;;4.53;2.45;;;;;;;7.51;74.00;94625.13;5081560;28;20436;-76
2022/11/25 00:15:24;;;;;;;6.30;2.90;;;;;;;7.47;74.25;94633.56;5090424;28;20326;-76
2022/11/25 00:17:51;;;;;;;4.60;2.50;;;;;;;7.41;74.60;94631.72;5089556;28;20420;-75
2022/11/25 00:20:19;;;;;;;4.37;2.60;;;;;;;7.42;74.81;94628.09;5090321;28;20173;-76
2022/11/25 00:22:44;;;;;;;3.55;2.50;;;;;;;7.51;75.02;94627.75;5088871;28;20476;-76
2022/11/25 00:25:10;;;;;;;3.03;2.50;;;;;;;7.56;74.33;94627.94;5088971;28;20976;-75
2022/11/25 00:27:36;;;;;;;3.17;2.50;;;;;;;7.51;74.28;94616.44;5089239;28;20759;-75
2022/11/25 00:30:01;;;;;;;4.07;2.20;;;;;;;7.50;74.29;94633.16;5088859;28;20554;-75
2022/11/25 00:32:27;;;;;;;5.40;2.40;;;;;;;7.33;75.04;94629.28;5089273;28;20495;-75
2022/11/25 00:34:52;;;;;;;4.00;2.70;;;;;;;7.39;75.09;94628.50;5089760;28;20419;-75
2022/11/25 00:37:18;;;;;;;4.67;2.77;;;;;;;7.50;75.11;94633.16;5089250;28;20420;-75
2022/11/25 00:39:43;;;;;;;3.00;2.47;;;;;;;7.56;74.74;94632.38;5089273;28;20420;-75
2022/11/25 00:44:53;;;;;;;3.42;3.00;;;;;;;7.31;76.21;94637.31;5089963;28;20446;-76
2022/11/25 00:47:20;;;;;;;5.77;2.93;;;;;;;7.38;75.96;94632.09;5088931;28;20878;-76
2022/11/25 00:49:48;;;;;;;4.13;2.75;;;;;;;7.40;76.30;94633.53;5088913;28;20412;-76
2022/11/25 00:52:16;;;;;;;4.05;2.92;;;;;;;7.42;75.73;94625.50;5092979;28;20494;-76
2022/11/25 00:54:43;;;;;;;9.07;2.95;;;;;;;7.46;75.76;94624.88;5093238;28;20426;-76
2022/11/25 00:57:09;;;;;;;3.35;2.47;;;;;;;7.47;75.58;94631.75;5074371;28;20423;-76
2022/11/25 00:59:35;;;;;;;6.53;2.83;;;;;;;7.49;75.10;94626.31;5093801;28;20182;-75
2022/11/25 01:02:00;;;;;;;4.40;2.87;;;;;;;7.52;75.52;94631.94;5093513;28;20419;-76
2022/11/25 01:04:26;;;;;;;3.00;2.40;;;;;;;7.36;75.84;94636.72;5074231;28;20819;-76
2022/11/25 01:06:52;;;;;;;3.80;2.55;;;;;;;7.32;75.43;94607.53;5092451;28;20475;-76
2022/11/25 01:09:18;;;;;;;3.78;2.50;;;;;;;7.32;75.43;94630.28;5076805;28;20414;-76
2022/11/25 01:11:44;;;;;;;5.22;2.90;;;;;;;7.38;75.76;94632.91;5072049;28;20768;-75
2022/11/25 01:14:09;;;;;;;3.70;2.70;;;;;;;7.45;75.53;94627.69;5073017;28;20406;-76
2022/11/25 01:16:35;;;;;;;4.17;2.67;;;;;;;7.49;75.45;94634.97;5072556;28;20409;-76
2022/11/25 01:19:02;;;;;;;4.47;2.90;;;;;;;7.39;75.72;94624.06;5072780;28;20434;-75
2022/11/25 01:21:30;;;;;;;4.60;3.17;;;;;;;7.28;75.56;94639.50;5071898;28;20409;-76
2022/11/25 01:23:57;;;;;;;4.57;3.00;;;;;;;7.34;76.12;94631.72;5072452;28;20496;-76
2022/11/25 01:26:23;;;;;;;4.23;3.23;;;;;;;7.11;75.69;94597.16;5055240;28;20631;-76
2022/11/25 01:28:53;;;;;;;4.97;3.23;;;;;;;7.35;75.77;94614.97;5071822;28;20448;-76
2022/11/25 01:31:22;;;;;;;3.97;2.67;;;;;;;7.35;76.20;94622.03;5077287;28;20850;-76
2022/11/25 01:33:52;;;;;;;2.60;2.13;;;;;;;7.45;75.79;94636.34;5072740;28;20185;-76
2022/11/25 01:36:18;;;;;;;2.73;2.40;;;;;;;7.50;75.45;94625.31;5072839;28;20174;-76
2022/11/25 01:38:44;;;;;;;3.80;2.70;;;;;;;7.53;75.03;94620.47;5072791;28;20198;-76
2022/11/25 01:41:12;;;;;;;3.30;2.40;;;;;;;7.53;75.57;94612.59;5091454;28;20182;-76
2022/11/25 01:43:38;;;;;;;5.57;3.13;;;;;;;7.54;74.84;94614.22;5092142;28;20451;-75
2022/11/25 01:46:28;;;;;;;3.87;2.60;;;;;;;7.53;74.99;94611.81;5091916;28;20435;-75
2022/11/25 01:49:05;;;;;;;2.30;1.90;;;;;;;7.58;74.42;94604.19;5092846;28;20165;-75
2022/11/25 01:51:40;;;;;;;2.63;2.10;;;;;;;7.55;73.80;94608.00;5092547;28;20628;-74
2022/11/25 01:54:09;;;;;;;4.37;2.10;;;;;;;7.37;74.08;94567.66;5092466;28;20169;-74
2022/11/25 01:56:44;;;;;;;2.90;1.90;;;;;;;7.58;74.25;94597.13;5092514;28;20235;-74
2022/11/25 01:59:09;;;;;;;3.83;2.15;;;;;;;7.58;73.42;94593.69;5091898;28;20511;-74
2022/11/25 02:01:35;;;;;;;3.03;2.30;;;;;;;7.51;73.36;94585.84;5088060;28;20995;-74
2022/11/25 02:04:01;;;;;;;3.27;2.00;;;;;;;7.60;73.27;94596.94;5072114;28;20171;-74
2022/11/25 02:06:31;;;;;;;4.43;2.42;;;;;;;7.41;73.24;94581.97;5071889;28;20513;-74
2022/11/25 02:09:03;;;;;;;3.40;2.47;;;;;;;7.57;73.42;94615.66;5071258;28;20968;-75
2022/11/25 02:11:29;;;;;;;2.30;1.97;;;;;;;7.51;73.28;94613.84;5072155;28;20178;-74
2022/11/25 02:13:56;;;;;;;3.75;2.10;;;;;;;7.32;73.14;94594.44;5071108;28;20416;-75
2022/11/25 02:16:21;;;;;;;2.20;1.80;;;;;;;7.42;73.52;94623.69;5072059;28;20232;-75
2022/11/25 02:18:48;;;;;;;2.53;2.10;;;;;;;7.46;73.43;94622.25;5088516;28;20499;-75
2022/11/25 02:21:19;;;;;;;3.67;2.30;;;;;;;7.20;73.63;94607.28;5091008;28;20917;-74
2022/11/25 02:24:10;;;;;;;2.80;1.88;;;;;;;7.42;73.51;94613.22;5082570;28;20414;-75
2022/11/25 02:26:36;;;;;;;2.63;2.00;;;;;;;7.49;72.92;94613.22;5070334;28;20791;-75
2022/11/25 02:29:01;;;;;;;3.22;2.47;;;;;;;7.56;72.40;94614.84;5071422;28;20409;-75
2022/11/25 02:31:27;;;;;;;2.60;1.80;;;;;;;7.62;72.28;94612.44;5071946;28;20186;-75
2022/11/25 02:33:52;;;;;;;4.80;2.20;;;;;;;7.54;71.99;94624.69;5088978;28;20407;-75
2022/11/25 02:36:21;;;;;;;3.27;2.57;;;;;;;7.53;72.57;94617.03;5091929;28;20310;-75
2022/11/25 02:38:52;;;;;;;3.35;2.25;;;;;;;7.56;72.54;94622.69;5090968;28;21130;-75
2022/11/25 02:41:27;;;;;;;2.85;2.17;;;;;;;7.56;72.08;94627.94;5090841;28;20413;-75
2022/11/25 02:43:53;;;;;;;3.35;2.50;;;;;;;7.34;71.29;94591.63;5090190;28;20805;-75
2022/11/25 02:46:22;;;;;;;3.77;2.10;;;;;;;7.46;71.13;94608.38;5091719;28;20186;-75
2022/11/25 02:48:49;;;;;;;2.80;2.00;;;;;;;7.38;72.20;94616.41;5090674;28;20430;-75
2022/11/25 02:51:17;;;;;;;3.13;2.20;;;;;;;7.20;72.38;94625.59;5090496;28;20894;-74
2022/11/25 02:53:42;;;;;;;3.90;2.35;;;;;;;7.17;72.67;94619.97;5091015;28;20404;-74
2022/11/25 02:56:09;;;;;;;6.53;2.30;;;;;;;7.22;72.26;94619.38;5091493;28;20254;-74
2022/11/25 02:58:34;;;;;;;2.83;2.40;;;;;;;7.17;72.54;94605.06;5068959;28;20426;-76
2022/11/25 03:01:00;;;;;;;3.53;2.13;;;;;;;7.36;71.97;94631.50;5052577;28;20532;-76
2022/11/25 03:03:25;;;;;;;4.53;2.40;;;;;;;7.41;72.58;94643.00;5069906;28;20462;-76
2022/11/25 03:05:50;;;;;;;4.13;2.40;;;;;;;7.48;72.41;94627.31;5086166;28;20412;-76
2022/11/25 03:08:16;;;;;;;4.23;2.53;;;;;;;7.17;72.06;94578.91;5090260;28;20401;-76
2022/11/25 03:10:42;;;;;;;7.80;2.40;;;;;;;7.42;72.32;94613.22;5091136;28;20435;-76
2022/11/25 03:13:08;;;;;;;2.85;2.15;;;;;;;7.46;72.31;94624.88;5072567;28;20455;-76
2022/11/25 03:15:34;;;;;;;3.30;2.40;;;;;;;7.32;72.94;94618.00;5070521;28;20414;-75
2022/11/25 03:18:01;;;;;;;6.15;2.72;;;;;;;7.48;72.99;94641.22;5053160;28;20433;-76
2022/11/25 03:20:26;;;;;;;3.25;2.38;;;;;;;7.14;73.22;94605.44;5052388;28;20429;-76
2022/11/25 03:22:52;;;;;;;3.28;2.20;;;;;;;7.42;73.57;94646.44;5069867;28;20417;-76
2022/11/25 03:25:18;;;;;;;3.05;2.50;;;;;;;7.37;73.39;94628.69;5070598;28;20787;-76
2022/11/25 03:27:44;;;;;;;3.30;2.50;;;;;;;7.41;74.09;94658.72;5070253;28;20962;-75
2022/11/25 03:30:15;;;;;;;4.30;3.00;;;;;;;7.37;74.32;94660.09;5070136;28;20427;-76
2022/11/25 03:32:41;;;;;;;4.87;2.60;;;;;;;7.40;74.58;94662.34;5071016;28;20281;-76
2022/11/25 03:35:07;;;;;;;3.87;2.70;;;;;;;7.28;74.85;94658.66;5070975;28;20621;-76
2022/11/25 03:37:32;;;;;;;5.10;2.85;;;;;;;7.04;75.36;94628.56;5052475;28;20974;-75
2022/11/25 03:39:58;;;;;;;3.83;2.70;;;;;;;7.36;75.75;94668.16;5069384;28;20443;-75
2022/11/25 03:42:23;;;;;;;4.97;3.05;;;;;;;7.29;75.68;94670.75;5070478;28;20818;-76
2022/11/25 03:44:49;;;;;;;3.93;2.50;;;;;;;7.16;76.33;94661.03;5069377;28;20414;-76
2022/11/25 03:47:14;;;;;;;3.17;2.50;;;;;;;7.27;76.28;94674.53;5066483;28;20788;-76
2022/11/25 03:49:40;;;;;;;4.60;2.80;;;;;;;7.12;76.48;94651.94;5069824;28;20488;-75
2022/11/25 03:52:06;;;;;;;3.38;2.42;;;;;;;7.11;76.76;94659.97;5076338;28;20947;-76
2022/11/25 03:54:32;;;;;;;4.13;2.70;;;;;;;7.22;77.03;94666.47;5069558;28;20411;-74
2022/11/25 03:56:57;;;;;;;2.83;2.50;;;;;;;7.10;76.71;94669.66;5068974;28;20393;-74
2022/11/25 03:59:23;;;;;;;4.03;2.60;;;;;;;6.83;77.07;94639.13;5069152;28;20405;-74
2022/11/25 04:01:48;;;;;;;3.92;2.80;;;;;;;6.97;77.81;94687.91;5069034;28;20429;-74
2022/11/25 04:04:13;;;;;;;3.47;2.40;;;;;;;7.01;77.77;94694.34;5069046;28;20891;-75
2022/11/25 04:06:39;;;;;;;3.30;2.72;;;;;;;6.94;78.10;94698.75;5067882;28;20429;-75
2022/11/25 04:09:08;;;;;;;4.85;3.22;;;;;;;6.65;78.15;94657.13;5069035;28;21120;-76
2022/11/25 04:14:18;;;;;;;3.50;2.80;;;;;;;6.63;78.48;94686.09;5083000;28;20251;-74
2022/11/25 04:16:43;;;;;;;4.13;2.80;;;;;;;6.74;78.65;94706.50;5089331;28;20893;-74
2022/11/25 04:19:09;;;;;;;4.30;3.03;;;;;;;6.75;78.33;94710.69;5090081;28;20428;-74
2022/11/25 04:21:34;;;;;;;4.77;2.70;;;;;;;6.75;78.36;94705.47;5090141;28;20413;-74
2022/11/25 04:24:00;;;;;;;6.55;3.17;;;;;;;6.64;78.33;94706.00;5089300;28;20392;-74
2022/11/25 04:26:25;;;;;;;3.30;2.53;;;;;;;6.41;78.58;94685.31;5077846;28;20197;-75
2022/11/25 04:28:50;;;;;;;3.60;2.77;;;;;;;6.41;79.31;94708.81;5054927;28;20768;-74
2022/11/25 04:31:16;;;;;;;4.32;2.95;;;;;;;6.22;80.10;94696.41;5073143;28;20453;-75
2022/11/25 04:33:41;;;;;;;4.60;3.17;;;;;;;6.14;80.47;94717.44;5072407;28;20447;-74
2022/11/25 04:36:08;;;;;;;5.73;2.90;;;;;;;6.26;80.80;94712.53;5072864;28;20529;-74
2022/11/25 04:38:33;;;;;;;2.43;2.10;;;;;;;6.23;80.67;94718.91;5073866;28;20186;-74
2022/11/25 04:40:58;;;;;;;3.03;2.70;;;;;;;6.25;80.51;94724.78;5072738;28;20870;-75
2022/11/25 04:43:24;;;;;;;3.93;3.00;;;;;;;6.40;79.85;94722.88;5072415;28;20417;-75
2022/11/25 04:45:49;;;;;;;4.03;3.37;;;;;;;6.37;79.65;94730.31;5073285;28;20421;-75
2022/11/25 04:48:15;;;;;;;6.77;4.30;;;;;;;6.33;80.26;94727.25;5071457;28;21196;-75
2022/11/25 04:50:41;;;;;;;8.20;5.30;;;;;;;6.35;80.11;94735.72;5076237;28;20230;-75
2022/11/25 04:53:06;;;;;;;6.07;3.33;;;;;;;6.43;79.48;94724.34;5092898;28;20169;-74
2022/11/25 04:55:31;;;;;;;3.33;2.70;;;;;;;6.51;79.37;94728.63;5091978;28;20416;-75
2022/11/25 04:57:57;;;;;;;5.20;3.38;;;;;;;6.38;78.92;94732.75;5092573;28;20442;-75
2022/11/25 05:00:22;;;;;;;5.83;3.53;;;;;;;6.37;79.18;94738.97;5092271;28;20432;-75
2022/11/25 05:02:48;;;;;;;8.23;5.00;;;;;;;6.15;79.63;94755.63;5092472;28;20412;-75
2022/11/25 05:05:13;;;;;;;8.40;5.38;;;;;;;5.93;80.45;94740.94;5092413;28;20484;-75
2022/11/25 05:07:39;;;;;;;5.83;3.40;;;;;;;6.00;80.25;94741.81;5074226;28;20411;-75
2022/11/25 05:10:06;;;;;;;8.97;4.00;;;;;;;6.21;79.92;94761.94;5085139;28;21095;-74
2022/11/25 05:12:32;;;;;;;5.53;3.33;;;;;;;6.31;79.89;94770.28;5072429;28;20467;-74
2022/11/25 05:14:57;;;;;;;9.57;4.33;;;;;;;6.37;79.19;94774.75;5072317;28;20436;-74
2022/11/25 05:17:25;;;;;;;7.72;4.57;;;;;;;6.29;79.10;94770.47;5071695;28;20453;-74
2022/11/25 05:19:51;;;;;;;9.35;4.68;;;;;;;6.30;79.11;94781.72;5072480;28;20918;-74
2022/11/25 05:22:20;;;;;;;6.53;4.10;;;;;;;6.30;78.97;94786.97;5072847;28;20177;-73
2022/11/25 05:24:46;;;;;;;8.03;3.80;;;;;;;6.34;78.70;94796.84;5071670;28;20202;-74
2022/11/25 05:27:12;;;;;;;6.53;3.72;;;;;;;6.39;78.80;94791.88;5071189;28;20506;-74
2022/11/25 05:29:37;;;;;;;4.97;2.70;;;;;;;6.40;78.76;94811.78;5071657;28;20408;-74
2022/11/25 05:32:04;;;;;;;4.70;3.10;;;;;;;6.55;78.52;94809.13;5072429;28;20417;-74
2022/11/25 05:34:30;;;;;;;5.77;3.73;;;;;;;6.65;77.77;94814.03;5067383;28;20177;-74
2022/11/25 05:36:55;;;;;;;7.90;3.80;;;;;;;6.76;77.49;94822.19;5072610;28;20284;-74
2022/11/25 05:39:21;;;;;;;6.63;3.65;;;;;;;6.77;76.89;94817.75;5072307;28;20467;-74
2022/11/25 05:41:47;;;;;;;5.25;3.30;;;;;;;6.81;76.88;94837.31;5072392;28;20409;-74
2022/11/25 05:44:12;;;;;;;8.20;3.80;;;;;;;6.82;76.66;94836.34;5072507;28;20225;-74
2022/11/25 05:46:38;;;;;;;7.83;4.37;;;;;;;6.78;76.83;94833.25;5072582;28;20614;-74
2022/11/25 05:49:03;;;;;;;10.30;5.43;;;;;;;6.66;76.56;94819.06;5072532;28;20589;-74
2022/11/25 05:51:29;;;;;;;11.20;5.10;;;;;;;6.90;76.47;94854.50;5072756;28;20257;-74
2022/11/25 05:53:55;;;;;;;6.60;4.10;;;;;;;6.88;75.52;94832.13;5072318;28;20223;-74
2022/11/25 05:56:20;;;;;;;9.97;4.50;;;;;;;7.04;76.28;94853.63;5054330;28;20413;-74
2022/11/25 05:58:46;;;;;;;17.70;8.13;;;;;;;7.09;74.79;94853.84;5071806;28;20429;-74
2022/11/25 06:01:14;;;;;;;13.60;7.10;;;;;;;6.99;74.79;94837.69;5072437;28;20186;-74
2022/11/25 06:03:40;;;;;;;12.07;5.53;;;;;;;7.14;74.86;94867.19;5072222;28;20200;-74
2022/11/25 06:06:06;;;;;;;16.60;5.23;;;;;;;7.15;74.71;94860.16;5072141;28;20567;-74
2022/11/25 06:08:32;;;;;;;9.93;5.13;;;;;;;7.24;74.35;94874.72;5072115;28;20650;-74
2022/11/25 06:10:57;;;;;;;4.83;3.37;;;;;;;7.18;73.80;94867.59;5072054;28;20636;-74
2022/11/25 06:13:23;;;;;;;10.40;5.43;;;;;;;7.26;73.92;94864.06;5072265;28;20175;-74
2022/11/25 06:15:49;;;;;;;10.77;4.90;;;;;;;7.25;74.01;94865.06;5071850;28;20178;-74
2022/11/25 06:18:16;;;;;;;6.50;3.70;;;;;;;7.37;73.71;94869.56;5072124;28;20578;-74
2022/11/25 06:20:42;;;;;;;8.07;4.27;;;;;;;7.42;73.37;94871.63;5072045;28;20695;-74
2022/11/25 06:23:09;;;;;;;4.43;3.13;;;;;;;7.45;73.18;94889.56;5072238;28;20174;-73
2022/11/25 06:25:35;;;;;;;4.60;3.20;;;;;;;7.40;72.84;94874.44;5072053;28;20329;-74
2022/11/25 06:28:02;;;;;;;6.63;3.20;;;;;;;7.47;72.73;94887.56;5071786;28;20227;-73
2022/11/25 06:30:28;;;;;;;8.07;3.90;;;;;;;7.52;73.09;94893.84;5072107;28;20211;-75
2022/11/25 06:32:54;;;;;;;7.90;3.30;;;;;;;7.43;72.96;94879.31;5071857;28;20651;-75
2022/11/25 06:35:20;;;;;;;7.77;4.57;;;;;;;7.61;72.61;94889.28;5071891;28;20174;-75
2022/11/25 06:37:46;;;;;;;5.43;3.53;;;;;;;7.77;71.51;94909.16;5071737;28;20186;-75
2022/11/25 06:40:11;;;;;;;4.67;3.53;;;;;;;7.76;71.93;94912.75;5071564;28;20261;-75
2022/11/25 06:42:38;;;;;;;5.03;3.10;;;;;;;7.85;71.64;94916.84;5071659;28;20551;-75
2022/11/25 06:45:04;;;;;;;4.47;3.17;;;;;;;7.65;70.76;94885.28;5071342;28;20260;-75
2022/11/25 06:47:30;;;;;;;6.37;3.30;;;;;;;7.69;71.20;94907.50;5071157;28;20224;-75
2022/11/25 06:49:55;;;;;;;5.17;3.13;;;;;;;7.83;71.60;94918.84;5071158;28;20632;-75
2022/11/25 06:52:21;;;;;;;6.43;3.70;;;;;;;7.67;71.74;94879.84;5071013;28;20174;-75
2022/11/25 06:54:46;;;;;;;8.70;4.50;;;;;;;8.00;71.61;94919.34;5071058;28;20547;-75
2022/11/25 06:57:16;;;;;;;5.37;3.60;;;;;;;8.09;70.64;94919.00;5070388;28;20720;-77
2022/11/25 06:59:42;;;;;;;8.93;4.53;;;;;;;7.91;70.59;94919.50;5067200;28;20261;-74
2022/11/25 07:02:10;;;;;;;6.13;4.07;;;;;;;7.90;72.05;94917.06;5070657;28;20193;-75
2022/11/25 07:04:36;;;;;;;8.90;4.23;;;;;;;8.01;71.21;94924.41;5053779;28;20182;-75
2022/11/25 07:07:02;;;;;;;5.90;3.80;;;;;;;7.95;71.18;94899.78;5081233;28;20181;-75
2022/11/25 07:09:28;;;;;;;12.57;3.83;;;;;;;8.08;70.90;94927.88;5091352;28;20627;-76
2022/11/25 07:11:53;;;;;;;7.47;3.80;;;;;;;7.95;70.19;94919.94;5086496;28;20185;-75
2022/11/25 07:14:19;;;;;;;7.67;3.37;;;;;;;7.99;71.11;94918.53;5070884;28;20179;-75
2022/11/25 07:16:45;;;;;;;7.57;3.77;;;;;;;7.93;70.61;94922.75;5071157;28;20170;-75
2022/11/25 07:19:13;;;;;;;10.93;4.80;;;;;;;7.86;70.93;94927.16;5070917;28;20198;-75
2022/11/25 07:21:39;;;;;;;13.17;5.10;;;;;;;7.70;71.44;94919.56;5070877;28;20174;-75
2022/11/25 07:24:06;;;;;;;7.93;4.87;;;;;;;7.87;70.94;94915.63;5070863;28;20185;-75
2022/11/25 07:26:34;;;;;;;6.50;4.20;;;;;;;8.13;70.33;94938.56;5070877;28;20178;-75
2022/11/25 07:29:07;;;;;;;5.07;3.50;;;;;;;8.36;70.35;94945.41;5070907;28;20173;-75
2022/11/25 07:31:35;;;;;;;6.93;3.60;;;;;;;8.47;69.28;94939.59;5070931;28;20185;-75
2022/11/25 07:34:04;;;;;;;6.37;3.97;;;;;;;8.57;69.37;94943.44;5070533;28;20206;-75
2022/11/25 07:36:31;;;;;;;7.50;4.57;;;;;;;8.54;68.74;94935.19;5070676;28;20178;-74
2022/11/25 07:39:00;;;;;;;6.43;3.93;;;;;;;8.70;69.31;94940.91;5070512;28;20579;-74
2022/11/25 07:41:26;;;;;;;6.17;3.50;;;;;;;9.13;68.22;94942.41;5070431;28;20607;-74
2022/11/25 07:43:55;;;;;;;6.17;4.10;;;;;;;9.79;68.06;94946.69;5070253;28;20206;-74
2022/11/25 07:46:23;;;;;;;9.70;4.67;;;;;;;10.87;63.03;94952.31;5070504;28;20178;-74
2022/11/25 07:48:49;;;;;;;9.17;4.20;;;;;;;11.99;61.05;94954.19;5070322;28;20249;-74
2022/11/25 07:51:23;;;;;;;6.40;3.07;;;;;;;13.68;55.70;94938.28;5070270;28;20253;-74
2022/11/25 07:53:50;;;;;;;7.10;3.90;;;;;;;15.31;50.79;94951.34;5070728;28;20185;-74
2022/11/25 07:56:16;;;;;;;4.63;3.40;;;;;;;16.34;48.71;94958.13;5070656;28;20186;-74
2022/11/25 07:58:42;;;;;;;5.87;3.43;;;;;;;17.06;45.80;94957.22;5070422;28;20200;-75
2022/11/25 08:01:10;;;;;;;6.40;3.30;;;;;;;17.42;44.44;94956.56;5070894;28;20189;-75
2022/11/25 08:03:37;;;;;;;4.03;3.20;;;;;;;17.36;43.74;94954.94;5070706;28;20170;-75
2022/11/25 08:06:05;;;;;;;2.95;2.63;;;;;;;17.14;43.92;94957.59;5070646;28;20178;-76
2022/11/25 08:08:30;;;;;;;6.55;2.50;;;;;;;17.05;44.19;94964.41;5070292;28;20217;-76
2022/11/25 08:10:56;;;;;;;3.20;2.43;;;;;;;16.68;44.15;94966.88;5070319;28;20197;-75
2022/11/25 08:13:22;;;;;;;6.28;2.88;;;;;;;16.59;45.27;94960.34;5070159;28;20605;-75
2022/11/25 08:15:48;;;;;;;3.13;2.50;;;;;;;16.23;45.34;94967.81;5070326;28;20174;-75
2022/11/25 08:18:13;;;;;;;3.80;2.40;;;;;;;15.64;45.66;94952.50;5069388;28;20205;-75
2022/11/25 08:20:38;;;;;;;9.50;4.27;;;;;;;15.42;46.45;94974.38;5064026;28;20181;-74
2022/11/25 08:23:04;;;;;;;10.07;3.07;;;;;;;14.87;47.32;94982.06;5070003;28;20651;-74
2022/11/25 08:25:30;;;;;;;5.43;2.50;;;;;;;14.32;49.32;94971.03;5070209;28;20257;-74
2022/11/25 08:27:58;;;;;;;6.30;2.50;;;;;;;14.22;49.60;94971.63;5070046;28;20181;-74
2022/11/25 08:30:25;;;;;;;8.37;2.50;;;;;;;14.15;50.13;94959.53;5070157;28;20174;-74
2022/11/25 08:32:51;;;;;;;5.07;3.20;;;;;;;14.09;50.33;94985.09;5069934;28;20178;-74
2022/11/25 08:35:18;;;;;;;2.57;1.97;;;;;;;13.92;50.37;94978.84;5069956;28;20189;-75
2022/11/25 08:37:43;;;;;;;4.37;2.60;;;;;;;13.85;51.17;94976.28;5070122;28;20671;-75
2022/11/25 08:40:09;;;;;;;10.63;4.93;;;;;;;13.96;50.79;94980.81;5070108;28;20186;-75
2022/11/25 08:42:35;;;;;;;4.10;2.73;;;;;;;13.98;50.46;94981.38;5070004;28;20261;-75
2022/11/25 08:45:01;;;;;;;4.83;2.37;;;;;;;13.94;51.07;94982.88;5069929;28;20709;-74
2022/11/25 08:47:26;;;;;;;3.87;2.60;;;;;;;13.75;51.66;94986.63;5069935;28;20175;-75
2022/11/25 08:49:53;;;;;;;6.10;3.80;;;;;;;13.67;51.83;94973.72;5069150;28;20178;-75
2022/11/25 08:52:19;;;;;;;10.87;4.23;;;;;;;13.90;51.78;94994.16;5070700;28;20671;-75
2022/11/25 08:54:44;;;;;;;6.10;3.70;;;;;;;13.94;51.38;94982.88;5070070;28;20181;-75
2022/11/25 08:57:10;;;;;;;8.37;3.83;;;;;;;14.07;51.10;94987.16;5069684;28;20171;-75
2022/11/25 08:59:36;;;;;;;5.07;3.20;;;;;;;14.23;50.64;94981.16;5069916;28;20683;-75
2022/11/25 09:02:01;;;;;;;3.57;2.70;;;;;;;14.27;50.81;94984.19;5052099;28;20850;-75
2022/11/25 09:04:27;;;;;;;3.77;2.80;;;;;;;14.11;50.55;94961.00;5069911;28;20174;-75
2022/11/25 09:06:52;;;;;;;5.07;3.30;;;;;;;14.16;50.15;94974.38;5069988;28;20178;-74
2022/11/25 09:09:18;;;;;;;4.10;2.80;;;;;;;13.85;50.72;94981.59;5069573;28;20179;-75
2022/11/25 09:11:44;;;;;;;3.53;2.97;;;;;;;13.67;52.29;94980.84;5085975;28;20559;-75
2022/11/25 09:14:09;;;;;;;7.27;3.57;;;;;;;13.58;52.77;94969.78;5093675;28;20260;-75
2022/11/25 09:16:35;;;;;;;5.13;3.43;;;;;;;13.53;51.79;94954.59;5083535;28;20170;-74
2022/11/25 09:19:00;;;;;;;3.03;2.67;;;;;;;13.45;52.01;94940.91;5071535;28;20210;-75
2022/11/25 09:21:26;;;;;;;10.87;4.40;;;;;;;13.48;52.15;94978.28;5070780;28;20214;-76
2022/11/25 09:23:53;;;;;;;6.77;3.13;;;;;;;13.25;52.55;94983.47;5071130;28;20273;-76
2022/11/25 09:26:31;;;;;;;7.37;4.00;;;;;;;13.09;52.76;94984.88;5072036;28;20200;-77
2022/11/25 09:28:57;;;;;;;4.27;3.30;;;;;;;12.76;53.84;94964.16;5073166;28;20177;-75
2022/11/25 09:31:23;;;;;;;4.67;3.80;;;;;;;12.93;54.15;94968.81;5072790;28;20170;-75
2022/11/25 09:33:49;;;;;;;4.77;3.70;;;;;;;12.77;54.10;94986.09;5073092;28;20250;-75
2022/11/25 09:36:16;;;;;;;6.77;2.53;;;;;;;12.50;54.95;94990.03;5067677;28;20184;-76
2022/11/25 09:38:45;;;;;;;4.00;2.53;;;;;;;12.47;54.08;94981.53;5068057;28;20624;-75
2022/11/25 09:47:50;;;;;;;3.80;2.90;;;;;;;11.63;56.57;94995.22;4991827;28;20193;-76
2022/11/25 09:50:33;;;;;;;9.63;4.13;;;;;;;11.19;56.87;94987.38;5073718;28;20185;-76
2022/11/25 09:53:41;;;;;;;4.40;3.17;;;;;;;10.98;57.67;94993.78;5089359;28;20236;-76
2022/11/25 09:56:38;;;;;;;4.17;2.87;;;;;;;10.70;58.73;94982.75;5027080;28;20187;-76
2022/11/25 09:59:10;;;;;;;4.13;2.73;;;;;;;10.39;59.95;94970.28;5071504;28;20648;-75
2022/11/25 10:01:49;;;;;;;6.23;3.80;;;;;;;10.49;60.30;94989.09;5054569;28;20219;-76
2022/11/25 10:04:31;;;;;;;3.40;2.53;;;;;;;10.46;59.77;94981.63;5053726;28;21209;-75
2022/11/25 10:07:00;;;;;;;7.07;3.63;;;;;;;10.05;60.34;94966.88;5072650;28;20166;-76
2022/11/25 10:09:29;;;;;;;4.13;2.43;;;;;;;10.15;60.95;94985.69;5072524;28;20572;-76
2022/11/25 10:12:01;;;;;;;7.97;5.20;;;;;;;9.97;61.43;94967.09;5070383;28;20590;-75
2022/11/25 10:14:45;;;;;;;7.57;2.70;;;;;;;10.07;61.60;94985.91;5071789;28;20186;-75
2022/11/25 10:17:54;;;;;;;9.67;4.73;;;;;;;9.88;62.49;94985.91;5072092;28;20174;-75
2022/11/25 10:20:50;;;;;;;3.80;2.67;;;;;;;9.92;62.26;94990.56;4974317;28;20189;-75
2022/11/25 10:23:33;;;;;;;4.10;2.70;;;;;;;9.77;61.18;94966.31;4988875;28;20621;-76
2022/11/25 10:26:12;;;;;;;5.50;2.10;;;;;;;9.59;61.72;94976.63;5077891;28;20190;-76
2022/11/25 10:28:44;;;;;;;6.10;3.50;;;;;;;9.60;62.77;94973.00;5076229;28;20189;-74
2022/11/25 10:31:18;;;;;;;7.10;4.40;;;;;;;9.81;62.87;94975.41;5083530;28;20182;-75
2022/11/25 10:33:45;;;;;;;9.13;3.87;;;;;;;9.92;62.47;94947.69;5070854;28;20293;-75
2022/11/25 10:36:22;;;;;;;4.80;2.50;;;;;;;9.97;60.93;94974.97;5067718;28;20968;-75
2022/11/25 10:39:08;;;;;;;3.40;2.27;;;;;;;10.07;61.20;94972.75;5071867;28;20216;-75
2022/11/25 10:41:43;;;;;;;3.13;2.73;;;;;;;10.21;61.05;94979.63;5071479;28;20189;-75
2022/11/25 10:44:25;;;;;;;5.33;3.27;;;;;;;10.29;60.75;94968.06;5063497;28;20221;-75
2022/11/25 10:47:19;;;;;;;5.70;2.27;;;;;;;10.36;59.36;94975.97;5080781;28;20177;-75
2022/11/25 10:50:10;;;;;;;3.40;2.27;;;;;;;10.38;60.10;94976.59;5091688;28;20525;-74
2022/11/25 10:52:54;;;;;;;7.67;3.40;;;;;;;10.43;60.63;94987.28;5078060;28;20186;-74
2022/11/25 10:55:25;;;;;;;6.13;2.40;;;;;;;10.50;59.63;94986.25;5071341;28;20183;-75
2022/11/25 10:57:52;;;;;;;7.80;2.10;;;;;;;10.35;60.12;94974.34;5071180;28;20259;-74
2022/11/25 11:00:36;;;;;;;4.83;2.90;;;;;;;10.54;59.94;94994.56;5083810;28;20186;-75
2022/11/25 11:03:23;;;;;;;5.93;2.40;;;;;;;10.62;60.65;94989.06;5088434;28;20189;-75
2022/11/25 11:05:50;;;;;;;6.33;2.70;;;;;;;10.63;60.67;95006.47;5091490;28;20631;-75
2022/11/25 11:08:37;;;;;;;4.00;2.43;;;;;;;10.61;60.50;94997.16;5091095;28;20172;-74
2022/11/25 11:11:20;;;;;;;15.13;3.37;;;;;;;10.51;60.40;95005.50;5078431;28;20626;-74
2022/11/25 11:13:47;;;;;;;3.33;2.73;;;;;;;10.48;60.52;95011.97;5084027;28;20181;-74
2022/11/25 11:16:40;;;;;;;2.70;2.27;;;;;;;10.37;61.05;95006.53;5068800;28;20731;-74
2022/11/25 11:19:06;;;;;;;3.33;2.70;;;;;;;10.23;61.31;95005.75;5064948;28;20190;-75
2022/11/25 11:21:34;;;;;;;4.20;2.70;;;;;;;10.01;61.92;95013.03;5072774;28;20561;-74
2022/11/25 11:24:01;;;;;;;4.63;2.90;;;;;;;9.97;62.84;95008.34;5083173;28;20197;-76
2022/11/25 11:26:32;;;;;;;4.30;2.53;;;;;;;9.81;63.73;95005.13;5081262;28;20188;-76
2022/11/25 11:29:15;;;;;;;8.50;4.17;;;;;;;9.80;64.43;95016.66;5075644;28;20269;-76
2022/11/25 11:31:47;;;;;;;6.00;3.53;;;;;;;9.88;64.06;95004.31;5073740;28;20177;-76
2022/11/25 11:34:29;;;;;;;4.33;3.20;;;;;;;9.91;64.14;95012.63;5085579;28;20185;-76
2022/11/25 11:36:55;;;;;;;3.57;2.90;;;;;;;9.92;63.62;95006.34;5076181;28;20205;-76
2022/11/25 11:39:23;;;;;;;4.97;2.90;;;;;;;9.82;64.29;95009.38;5086875;28;20225;-76
2022/11/25 11:42:23;;;;;;;5.03;3.53;;;;;;;9.90;64.36;95013.63;5075678;28;20196;-76
2022/11/25 11:45:11;;;;;;;6.17;3.57;;;;;;;10.01;64.65;95010.41;5076631;28;20792;-76
2022/11/25 11:48:15;;;;;;;8.20;3.43;;;;;;;10.10;63.82;95000.47;5070057;28;20315;-76
2022/11/25 11:50:54;;;;;;;4.73;3.27;;;;;;;10.00;63.42;94989.56;5041788;28;20193;-75
2022/11/25 11:53:38;;;;;;;5.53;2.93;;;;;;;10.00;62.77;94989.56;5084776;28;20181;-76
2022/11/25 11:56:11;;;;;;;3.90;2.53;;;;;;;10.17;63.65;95011.78;5077386;28;20173;-76
2022/11/25 11:59:15;;;;;;;4.30;3.43;;;;;;;10.36;63.85;95018.06;5078360;28;20259;-76